sensor_id;sensor_type;location;lat;lon;timestamp;temperature;humidity
7030;DHT22;3556;53.500;10.176;2023-05-10T00:00:13;14.00;69.70
7030;DHT22;3556;53.500;10.176;2023-05-10T00:02:39;13.90;69.70
7030;DHT22;3556;53.500;10.176;2023-05-10T00:05:05;14.00;70.50
7030;DHT22;3556;53.500;10.176;2023-05-10T00:07:31;14.00;70.70
7030;DHT22;3556;53.500;10.176;2023-05-10T00:09:56;13.90;71.10
7030;DHT22;3556;53.500;10.176;2023-05-10T00:12:22;13.90;71.60
7030;DHT22;3556;53.500;10.176;2023-05-10T00:14:47;13.90;71.90
7030;DHT22;3556;53.500;10.176;2023-05-10T00:17:13;13.90;72.30
7030;DHT22;3556;53.500;10.176;2023-05-10T00:19:39;13.80;71.90
7030;DHT22;3556;53.500;10.176;2023-05-10T00:22:04;13.80;72.60
7030;DHT22;3556;53.500;10.176;2023-05-10T00:24:30;13.80;73.00
7030;DHT22;3556;53.500;10.176;2023-05-10T00:26:55;13.80;72.70
7030;DHT22;3556;53.500;10.176;2023-05-10T00:29:21;13.80;73.60
7030;DHT22;3556;53.500;10.176;2023-05-10T00:31:47;13.80;73.40
7030;DHT22;3556;53.500;10.176;2023-05-10T00:34:12;13.70;73.70
7030;DHT22;3556;53.500;10.176;2023-05-10T00:36:38;13.70;74.00
7030;DHT22;3556;53.500;10.176;2023-05-10T00:39:03;13.70;74.10
7030;DHT22;3556;53.500;10.176;2023-05-10T00:41:30;13.70;74.00
7030;DHT22;3556;53.500;10.176;2023-05-10T00:43:58;13.70;74.30
7030;DHT22;3556;53.500;10.176;2023-05-10T00:46:24;13.70;74.80
7030;DHT22;3556;53.500;10.176;2023-05-10T00:48:51;13.60;75.10
7030;DHT22;3556;53.500;10.176;2023-05-10T00:51:17;13.60;75.40
7030;DHT22;3556;53.500;10.176;2023-05-10T00:53:47;13.60;75.40
7030;DHT22;3556;53.500;10.176;2023-05-10T00:56:13;13.60;75.60
7030;DHT22;3556;53.500;10.176;2023-05-10T00:58:40;13.60;75.70
7030;DHT22;3556;53.500;10.176;2023-05-10T01:01:06;13.50;76.30
7030;DHT22;3556;53.500;10.176;2023-05-10T01:03:33;13.50;77.10
7030;DHT22;3556;53.500;10.176;2023-05-10T01:05:59;13.50;76.30
7030;DHT22;3556;53.500;10.176;2023-05-10T01:08:25;13.40;76.90
7030;DHT22;3556;53.500;10.176;2023-05-10T01:10:51;13.40;77.80
7030;DHT22;3556;53.500;10.176;2023-05-10T01:13:27;13.40;78.10
7030;DHT22;3556;53.500;10.176;2023-05-10T01:15:54;13.40;78.20
7030;DHT22;3556;53.500;10.176;2023-05-10T01:18:20;13.40;78.70
7030;DHT22;3556;53.500;10.176;2023-05-10T01:20:48;13.30;79.10
7030;DHT22;3556;53.500;10.176;2023-05-10T01:23:42;13.30;79.30
7030;DHT22;3556;53.500;10.176;2023-05-10T01:26:14;13.20;79.30
7030;DHT22;3556;53.500;10.176;2023-05-10T01:34:27;13.10;81.20
7030;DHT22;3556;53.500;10.176;2023-05-10T01:37:02;13.10;80.90
7030;DHT22;3556;53.500;10.176;2023-05-10T01:42:06;13.00;82.40
7030;DHT22;3556;53.500;10.176;2023-05-10T01:47:35;12.90;83.60
7030;DHT22;3556;53.500;10.176;2023-05-10T01:50:05;12.90;84.10
7030;DHT22;3556;53.500;10.176;2023-05-10T01:52:42;12.80;85.20
7030;DHT22;3556;53.500;10.176;2023-05-10T01:55:13;12.80;84.40
7030;DHT22;3556;53.500;10.176;2023-05-10T01:57:41;12.80;85.50
7030;DHT22;3556;53.500;10.176;2023-05-10T02:00:08;12.80;86.00
7030;DHT22;3556;53.500;10.176;2023-05-10T02:02:40;12.70;84.90
7030;DHT22;3556;53.500;10.176;2023-05-10T02:05:08;12.70;85.70
7030;DHT22;3556;53.500;10.176;2023-05-10T02:07:36;12.60;86.10
7030;DHT22;3556;53.500;10.176;2023-05-10T02:10:06;12.60;85.40
7030;DHT22;3556;53.500;10.176;2023-05-10T02:12:36;12.60;86.50
7030;DHT22;3556;53.500;10.176;2023-05-10T02:15:05;12.60;88.30
7030;DHT22;3556;53.500;10.176;2023-05-10T02:17:32;12.50;86.10
7030;DHT22;3556;53.500;10.176;2023-05-10T02:19:59;12.50;88.60
7030;DHT22;3556;53.500;10.176;2023-05-10T02:22:27;12.50;88.80
7030;DHT22;3556;53.500;10.176;2023-05-10T02:24:54;12.50;89.50
7030;DHT22;3556;53.500;10.176;2023-05-10T02:27:23;12.50;89.90
7030;DHT22;3556;53.500;10.176;2023-05-10T02:29:50;12.40;90.30
7030;DHT22;3556;53.500;10.176;2023-05-10T02:32:17;12.40;90.40
7030;DHT22;3556;53.500;10.176;2023-05-10T02:34:44;12.40;90.90
7030;DHT22;3556;53.500;10.176;2023-05-10T02:37:13;12.40;91.00
7030;DHT22;3556;53.500;10.176;2023-05-10T02:39:40;12.40;90.90
7030;DHT22;3556;53.500;10.176;2023-05-10T02:42:11;12.30;90.80
7030;DHT22;3556;53.500;10.176;2023-05-10T02:44:42;12.30;91.00
7030;DHT22;3556;53.500;10.176;2023-05-10T02:47:08;12.30;91.40
7030;DHT22;3556;53.500;10.176;2023-05-10T02:49:34;12.30;91.50
7030;DHT22;3556;53.500;10.176;2023-05-10T02:52:01;12.30;91.00
7030;DHT22;3556;53.500;10.176;2023-05-10T02:54:32;12.30;91.70
7030;DHT22;3556;53.500;10.176;2023-05-10T02:57:00;12.20;92.30
7030;DHT22;3556;53.500;10.176;2023-05-10T02:59:26;12.20;92.10
7030;DHT22;3556;53.500;10.176;2023-05-10T03:01:52;12.20;92.70
7030;DHT22;3556;53.500;10.176;2023-05-10T03:04:18;12.20;92.80
7030;DHT22;3556;53.500;10.176;2023-05-10T03:06:44;12.10;92.50
7030;DHT22;3556;53.500;10.176;2023-05-10T03:09:10;12.10;92.50
7030;DHT22;3556;53.500;10.176;2023-05-10T03:11:50;12.10;93.20
7030;DHT22;3556;53.500;10.176;2023-05-10T03:20:11;12.00;94.00
7030;DHT22;3556;53.500;10.176;2023-05-10T03:22:47;12.00;94.10
7030;DHT22;3556;53.500;10.176;2023-05-10T03:25:15;12.00;94.10
7030;DHT22;3556;53.500;10.176;2023-05-10T03:27:43;12.00;93.80
7030;DHT22;3556;53.500;10.176;2023-05-10T03:30:13;12.00;93.60
7030;DHT22;3556;53.500;10.176;2023-05-10T03:32:39;12.00;94.90
7030;DHT22;3556;53.500;10.176;2023-05-10T03:35:08;12.00;94.50
7030;DHT22;3556;53.500;10.176;2023-05-10T03:37:34;12.00;93.70
7030;DHT22;3556;53.500;10.176;2023-05-10T03:40:01;12.00;94.20
7030;DHT22;3556;53.500;10.176;2023-05-10T03:42:27;12.00;94.80
7030;DHT22;3556;53.500;10.176;2023-05-10T03:44:52;12.00;95.20
7030;DHT22;3556;53.500;10.176;2023-05-10T03:47:18;12.00;95.60
7030;DHT22;3556;53.500;10.176;2023-05-10T03:49:43;12.00;95.60
7030;DHT22;3556;53.500;10.176;2023-05-10T03:52:09;12.00;95.70
7030;DHT22;3556;53.500;10.176;2023-05-10T03:54:34;11.90;95.00
7030;DHT22;3556;53.500;10.176;2023-05-10T03:57:00;11.90;96.10
7030;DHT22;3556;53.500;10.176;2023-05-10T03:59:26;11.90;96.10
7030;DHT22;3556;53.500;10.176;2023-05-10T04:01:52;11.90;95.60
7030;DHT22;3556;53.500;10.176;2023-05-10T04:04:17;11.90;96.30
7030;DHT22;3556;53.500;10.176;2023-05-10T04:06:44;11.90;95.80
7030;DHT22;3556;53.500;10.176;2023-05-10T04:09:10;11.90;96.50
7030;DHT22;3556;53.500;10.176;2023-05-10T04:11:36;11.90;95.10
7030;DHT22;3556;53.500;10.176;2023-05-10T04:14:01;11.90;95.90
7030;DHT22;3556;53.500;10.176;2023-05-10T04:16:27;11.90;96.70
7030;DHT22;3556;53.500;10.176;2023-05-10T04:18:53;11.90;97.40
7030;DHT22;3556;53.500;10.176;2023-05-10T04:21:18;11.90;96.20
7030;DHT22;3556;53.500;10.176;2023-05-10T04:23:44;12.00;96.50
7030;DHT22;3556;53.500;10.176;2023-05-10T04:26:10;12.00;97.10
7030;DHT22;3556;53.500;10.176;2023-05-10T04:28:35;12.00;97.40
7030;DHT22;3556;53.500;10.176;2023-05-10T04:31:08;12.00;97.40
7030;DHT22;3556;53.500;10.176;2023-05-10T04:33:33;12.00;97.50
7030;DHT22;3556;53.500;10.176;2023-05-10T04:35:59;12.00;97.10
7030;DHT22;3556;53.500;10.176;2023-05-10T04:38:26;12.00;96.50
7030;DHT22;3556;53.500;10.176;2023-05-10T04:40:52;12.00;97.80
7030;DHT22;3556;53.500;10.176;2023-05-10T04:43:18;12.00;97.20
7030;DHT22;3556;53.500;10.176;2023-05-10T04:45:44;12.10;97.10
7030;DHT22;3556;53.500;10.176;2023-05-10T04:48:09;12.10;97.40
7030;DHT22;3556;53.500;10.176;2023-05-10T04:50:35;12.10;98.20
7030;DHT22;3556;53.500;10.176;2023-05-10T04:53:00;12.10;97.90
7030;DHT22;3556;53.500;10.176;2023-05-10T04:55:26;12.10;97.80
7030;DHT22;3556;53.500;10.176;2023-05-10T04:57:53;12.20;98.20
7030;DHT22;3556;53.500;10.176;2023-05-10T05:00:20;12.20;98.20
7030;DHT22;3556;53.500;10.176;2023-05-10T05:02:46;12.20;98.10
7030;DHT22;3556;53.500;10.176;2023-05-10T05:05:12;12.30;98.20
7030;DHT22;3556;53.500;10.176;2023-05-10T05:07:38;12.30;98.80
7030;DHT22;3556;53.500;10.176;2023-05-10T05:10:05;12.40;98.30
7030;DHT22;3556;53.500;10.176;2023-05-10T05:12:31;12.40;98.20
7030;DHT22;3556;53.500;10.176;2023-05-10T05:14:57;12.50;97.70
7030;DHT22;3556;53.500;10.176;2023-05-10T05:17:22;12.60;97.80
7030;DHT22;3556;53.500;10.176;2023-05-10T05:19:48;12.70;97.20
7030;DHT22;3556;53.500;10.176;2023-05-10T05:22:14;12.80;97.40
7030;DHT22;3556;53.500;10.176;2023-05-10T05:24:39;13.00;97.10
7030;DHT22;3556;53.500;10.176;2023-05-10T05:27:05;13.10;96.40
7030;DHT22;3556;53.500;10.176;2023-05-10T05:29:31;13.20;96.60
7030;DHT22;3556;53.500;10.176;2023-05-10T05:31:57;13.30;96.20
7030;DHT22;3556;53.500;10.176;2023-05-10T05:34:23;13.40;96.10
7030;DHT22;3556;53.500;10.176;2023-05-10T05:36:50;13.50;95.50
7030;DHT22;3556;53.500;10.176;2023-05-10T05:39:16;13.60;96.10
7030;DHT22;3556;53.500;10.176;2023-05-10T05:41:42;13.60;95.80
7030;DHT22;3556;53.500;10.176;2023-05-10T05:44:07;13.70;95.70
7030;DHT22;3556;53.500;10.176;2023-05-10T05:46:33;13.80;95.90
7030;DHT22;3556;53.500;10.176;2023-05-10T05:48:59;13.80;95.60
7030;DHT22;3556;53.500;10.176;2023-05-10T05:51:25;14.00;95.60
7030;DHT22;3556;53.500;10.176;2023-05-10T05:53:50;14.10;94.90
7030;DHT22;3556;53.500;10.176;2023-05-10T05:56:16;14.00;94.70
7030;DHT22;3556;53.500;10.176;2023-05-10T05:58:43;14.10;95.00
7030;DHT22;3556;53.500;10.176;2023-05-10T06:01:09;14.00;94.60
7030;DHT22;3556;53.500;10.176;2023-05-10T06:03:35;14.10;94.60
7030;DHT22;3556;53.500;10.176;2023-05-10T06:06:00;14.20;94.90
7030;DHT22;3556;53.500;10.176;2023-05-10T06:08:26;14.30;94.60
7030;DHT22;3556;53.500;10.176;2023-05-10T06:10:52;14.50;94.80
7030;DHT22;3556;53.500;10.176;2023-05-10T06:13:17;14.60;93.70
7030;DHT22;3556;53.500;10.176;2023-05-10T06:15:43;14.60;93.60
7030;DHT22;3556;53.500;10.176;2023-05-10T06:18:08;14.70;93.80
7030;DHT22;3556;53.500;10.176;2023-05-10T06:20:34;14.80;93.70
7030;DHT22;3556;53.500;10.176;2023-05-10T06:23:00;14.90;93.30
7030;DHT22;3556;53.500;10.176;2023-05-10T06:25:25;15.00;93.30
7030;DHT22;3556;53.500;10.176;2023-05-10T06:27:51;15.10;93.30
7030;DHT22;3556;53.500;10.176;2023-05-10T06:30:20;15.20;93.20
7030;DHT22;3556;53.500;10.176;2023-05-10T06:32:48;15.30;93.00
7030;DHT22;3556;53.500;10.176;2023-05-10T06:35:14;15.40;93.30
7030;DHT22;3556;53.500;10.176;2023-05-10T06:37:39;15.50;92.80
7030;DHT22;3556;53.500;10.176;2023-05-10T06:40:06;15.60;92.50
7030;DHT22;3556;53.500;10.176;2023-05-10T06:42:32;15.80;92.30
7030;DHT22;3556;53.500;10.176;2023-05-10T06:44:57;15.90;92.40
7030;DHT22;3556;53.500;10.176;2023-05-10T06:47:23;15.90;92.00
7030;DHT22;3556;53.500;10.176;2023-05-10T06:49:48;15.90;92.10
7030;DHT22;3556;53.500;10.176;2023-05-10T06:52:14;15.80;92.00
7030;DHT22;3556;53.500;10.176;2023-05-10T06:54:39;15.90;92.30
7030;DHT22;3556;53.500;10.176;2023-05-10T06:57:05;15.90;92.30
7030;DHT22;3556;53.500;10.176;2023-05-10T06:59:31;15.90;91.90
7030;DHT22;3556;53.500;10.176;2023-05-10T07:01:57;16.00;92.30
7030;DHT22;3556;53.500;10.176;2023-05-10T07:04:22;16.00;92.50
7030;DHT22;3556;53.500;10.176;2023-05-10T07:06:48;16.00;92.10
7030;DHT22;3556;53.500;10.176;2023-05-10T07:09:15;16.00;92.20
7030;DHT22;3556;53.500;10.176;2023-05-10T07:11:41;16.10;92.10
7030;DHT22;3556;53.500;10.176;2023-05-10T07:14:06;16.20;92.10
7030;DHT22;3556;53.500;10.176;2023-05-10T07:16:32;16.30;92.20
7030;DHT22;3556;53.500;10.176;2023-05-10T07:18:58;16.40;92.20
7030;DHT22;3556;53.500;10.176;2023-05-10T07:21:23;16.60;92.80
7030;DHT22;3556;53.500;10.176;2023-05-10T07:23:49;16.70;91.70
7030;DHT22;3556;53.500;10.176;2023-05-10T07:26:15;16.80;91.40
7030;DHT22;3556;53.500;10.176;2023-05-10T07:28:41;16.90;91.00
7030;DHT22;3556;53.500;10.176;2023-05-10T07:31:07;17.00;91.40
7030;DHT22;3556;53.500;10.176;2023-05-10T07:33:32;16.90;90.50
7030;DHT22;3556;53.500;10.176;2023-05-10T07:35:58;17.00;90.80
7030;DHT22;3556;53.500;10.176;2023-05-10T07:38:24;17.10;91.00
7030;DHT22;3556;53.500;10.176;2023-05-10T07:40:49;17.20;90.50
7030;DHT22;3556;53.500;10.176;2023-05-10T07:43:15;17.30;90.10
7030;DHT22;3556;53.500;10.176;2023-05-10T07:45:40;17.30;90.30
7030;DHT22;3556;53.500;10.176;2023-05-10T07:48:07;17.30;90.20
7030;DHT22;3556;53.500;10.176;2023-05-10T07:50:32;17.40;90.70
7030;DHT22;3556;53.500;10.176;2023-05-10T07:52:58;17.30;89.00
7030;DHT22;3556;53.500;10.176;2023-05-10T07:55:23;17.20;90.20
7030;DHT22;3556;53.500;10.176;2023-05-10T07:57:49;17.20;89.40
7030;DHT22;3556;53.500;10.176;2023-05-10T08:00:18;17.20;90.20
7030;DHT22;3556;53.500;10.176;2023-05-10T08:02:44;17.20;90.30
7030;DHT22;3556;53.500;10.176;2023-05-10T08:05:09;17.20;90.30
7030;DHT22;3556;53.500;10.176;2023-05-10T08:07:35;17.30;90.30
7030;DHT22;3556;53.500;10.176;2023-05-10T08:10:02;17.20;89.30
7030;DHT22;3556;53.500;10.176;2023-05-10T08:12:28;17.30;89.80
7030;DHT22;3556;53.500;10.176;2023-05-10T08:14:53;17.20;88.90
7030;DHT22;3556;53.500;10.176;2023-05-10T08:17:19;17.20;89.50
7030;DHT22;3556;53.500;10.176;2023-05-10T08:19:44;17.20;89.90
7030;DHT22;3556;53.500;10.176;2023-05-10T08:22:10;17.10;90.00
7030;DHT22;3556;53.500;10.176;2023-05-10T08:24:36;17.20;89.30
7030;DHT22;3556;53.500;10.176;2023-05-10T08:27:05;17.30;90.00
7030;DHT22;3556;53.500;10.176;2023-05-10T08:29:31;17.40;89.90
7030;DHT22;3556;53.500;10.176;2023-05-10T08:31:56;17.50;89.90
7030;DHT22;3556;53.500;10.176;2023-05-10T08:34:22;17.50;89.90
7030;DHT22;3556;53.500;10.176;2023-05-10T08:36:48;17.60;89.50
7030;DHT22;3556;53.500;10.176;2023-05-10T08:39:14;17.60;90.20
7030;DHT22;3556;53.500;10.176;2023-05-10T08:41:43;17.70;89.80
7030;DHT22;3556;53.500;10.176;2023-05-10T08:44:09;17.70;89.70
7030;DHT22;3556;53.500;10.176;2023-05-10T08:46:37;17.70;89.60
7030;DHT22;3556;53.500;10.176;2023-05-10T08:49:06;17.90;90.00
7030;DHT22;3556;53.500;10.176;2023-05-10T08:51:36;17.90;90.10
7030;DHT22;3556;53.500;10.176;2023-05-10T08:54:03;18.00;90.20
7030;DHT22;3556;53.500;10.176;2023-05-10T08:56:29;18.00;90.10
7030;DHT22;3556;53.500;10.176;2023-05-10T08:58:55;18.10;89.40
7030;DHT22;3556;53.500;10.176;2023-05-10T09:01:21;18.10;90.00
7030;DHT22;3556;53.500;10.176;2023-05-10T09:03:48;18.20;89.20
7030;DHT22;3556;53.500;10.176;2023-05-10T09:06:14;18.20;89.20
7030;DHT22;3556;53.500;10.176;2023-05-10T09:08:42;18.20;89.60
7030;DHT22;3556;53.500;10.176;2023-05-10T09:11:09;18.20;89.50
7030;DHT22;3556;53.500;10.176;2023-05-10T09:13:35;18.20;89.70
7030;DHT22;3556;53.500;10.176;2023-05-10T09:16:02;18.10;89.00
7030;DHT22;3556;53.500;10.176;2023-05-10T09:18:28;18.00;89.50
7030;DHT22;3556;53.500;10.176;2023-05-10T09:20:54;18.00;89.60
7030;DHT22;3556;53.500;10.176;2023-05-10T09:23:20;18.10;90.30
7030;DHT22;3556;53.500;10.176;2023-05-10T09:25:46;18.10;90.30
7030;DHT22;3556;53.500;10.176;2023-05-10T09:28:11;18.00;90.40
7030;DHT22;3556;53.500;10.176;2023-05-10T09:30:37;18.00;90.60
7030;DHT22;3556;53.500;10.176;2023-05-10T09:33:03;18.00;90.60
7030;DHT22;3556;53.500;10.176;2023-05-10T09:35:31;18.00;90.30
7030;DHT22;3556;53.500;10.176;2023-05-10T09:38:03;18.00;90.80
7030;DHT22;3556;53.500;10.176;2023-05-10T09:40:30;17.90;90.60
7030;DHT22;3556;53.500;10.176;2023-05-10T09:43:00;17.90;91.30
7030;DHT22;3556;53.500;10.176;2023-05-10T09:45:30;17.80;91.60
7030;DHT22;3556;53.500;10.176;2023-05-10T09:47:57;17.70;91.40
7030;DHT22;3556;53.500;10.176;2023-05-10T09:50:24;17.60;92.40
7030;DHT22;3556;53.500;10.176;2023-05-10T09:52:58;17.40;92.60
7030;DHT22;3556;53.500;10.176;2023-05-10T09:58:04;17.00;94.30
7030;DHT22;3556;53.500;10.176;2023-05-10T10:00:37;16.80;95.40
7030;DHT22;3556;53.500;10.176;2023-05-10T10:03:03;16.60;96.70
7030;DHT22;3556;53.500;10.176;2023-05-10T10:07:57;16.30;98.90
7030;DHT22;3556;53.500;10.176;2023-05-10T10:10:26;16.10;99.80
7030;DHT22;3556;53.500;10.176;2023-05-10T10:12:53;16.00;99.90
7030;DHT22;3556;53.500;10.176;2023-05-10T10:15:20;16.00;99.90
7030;DHT22;3556;53.500;10.176;2023-05-10T10:17:46;16.00;99.90
7030;DHT22;3556;53.500;10.176;2023-05-10T10:20:13;15.90;99.90
7030;DHT22;3556;53.500;10.176;2023-05-10T10:22:39;15.70;99.90
7030;DHT22;3556;53.500;10.176;2023-05-10T10:25:05;15.50;99.90
7030;DHT22;3556;53.500;10.176;2023-05-10T10:30:33;15.30;99.90
7030;DHT22;3556;53.500;10.176;2023-05-10T10:35:33;15.10;99.90
7030;DHT22;3556;53.500;10.176;2023-05-10T10:38:00;15.00;99.90
7030;DHT22;3556;53.500;10.176;2023-05-10T10:40:33;14.90;99.90
7030;DHT22;3556;53.500;10.176;2023-05-10T10:46:10;14.70;99.90
7030;DHT22;3556;53.500;10.176;2023-05-10T10:48:40;14.60;99.90
7030;DHT22;3556;53.500;10.176;2023-05-10T10:51:06;14.60;99.90
7030;DHT22;3556;53.500;10.176;2023-05-10T10:53:32;14.60;99.90
7030;DHT22;3556;53.500;10.176;2023-05-10T10:56:12;14.70;99.90
7030;DHT22;3556;53.500;10.176;2023-05-10T10:58:41;14.80;99.90
7030;DHT22;3556;53.500;10.176;2023-05-10T11:01:17;14.90;99.90
7030;DHT22;3556;53.500;10.176;2023-05-10T11:06:33;15.00;99.90
7030;DHT22;3556;53.500;10.176;2023-05-10T11:09:04;15.20;99.90
7030;DHT22;3556;53.500;10.176;2023-05-10T11:11:31;15.10;99.90
7030;DHT22;3556;53.500;10.176;2023-05-10T11:14:03;15.20;99.90
7030;DHT22;3556;53.500;10.176;2023-05-10T11:16:43;15.30;99.90
7030;DHT22;3556;53.500;10.176;2023-05-10T11:19:11;15.30;99.90
7030;DHT22;3556;53.500;10.176;2023-05-10T11:21:51;15.30;99.90
7030;DHT22;3556;53.500;10.176;2023-05-10T11:24:35;15.30;99.90
7030;DHT22;3556;53.500;10.176;2023-05-10T11:27:01;15.40;99.90
7030;DHT22;3556;53.500;10.176;2023-05-10T11:29:27;15.30;99.90
7030;DHT22;3556;53.500;10.176;2023-05-10T11:31:53;15.10;99.90
7030;DHT22;3556;53.500;10.176;2023-05-10T11:34:26;14.90;99.90
7030;DHT22;3556;53.500;10.176;2023-05-10T11:36:53;14.80;99.90
7030;DHT22;3556;53.500;10.176;2023-05-10T11:39:29;14.70;99.90
7030;DHT22;3556;53.500;10.176;2023-05-10T11:41:55;14.70;99.90
7030;DHT22;3556;53.500;10.176;2023-05-10T11:44:21;14.70;99.90
7030;DHT22;3556;53.500;10.176;2023-05-10T11:46:46;14.60;99.90
7030;DHT22;3556;53.500;10.176;2023-05-10T11:49:12;14.70;99.90
7030;DHT22;3556;53.500;10.176;2023-05-10T11:51:38;14.70;99.90
7030;DHT22;3556;53.500;10.176;2023-05-10T11:54:09;14.70;99.90
7030;DHT22;3556;53.500;10.176;2023-05-10T11:56:35;14.70;99.90
7030;DHT22;3556;53.500;10.176;2023-05-10T11:59:01;14.90;99.90
7030;DHT22;3556;53.500;10.176;2023-05-10T12:01:28;15.10;99.90
7030;DHT22;3556;53.500;10.176;2023-05-10T12:03:55;15.20;99.90
7030;DHT22;3556;53.500;10.176;2023-05-10T12:06:26;15.40;99.90
7030;DHT22;3556;53.500;10.176;2023-05-10T12:08:53;15.40;99.90
7030;DHT22;3556;53.500;10.176;2023-05-10T12:11:19;15.40;99.90
7030;DHT22;3556;53.500;10.176;2023-05-10T12:13:47;15.40;99.90
7030;DHT22;3556;53.500;10.176;2023-05-10T12:16:20;15.30;99.90
7030;DHT22;3556;53.500;10.176;2023-05-10T12:18:53;15.30;99.90
7030;DHT22;3556;53.500;10.176;2023-05-10T12:21:20;15.40;99.90
7030;DHT22;3556;53.500;10.176;2023-05-10T12:23:47;15.40;99.90
7030;DHT22;3556;53.500;10.176;2023-05-10T12:26:14;15.50;99.90
7030;DHT22;3556;53.500;10.176;2023-05-10T12:28:40;15.50;99.90
7030;DHT22;3556;53.500;10.176;2023-05-10T12:31:06;15.60;99.90
7030;DHT22;3556;53.500;10.176;2023-05-10T12:33:40;15.60;99.90
7030;DHT22;3556;53.500;10.176;2023-05-10T12:36:13;15.60;99.90
7030;DHT22;3556;53.500;10.176;2023-05-10T12:38:42;15.70;99.90
7030;DHT22;3556;53.500;10.176;2023-05-10T12:41:10;15.80;99.90
7030;DHT22;3556;53.500;10.176;2023-05-10T12:43:37;15.90;99.90
7030;DHT22;3556;53.500;10.176;2023-05-10T12:46:13;16.10;99.90
7030;DHT22;3556;53.500;10.176;2023-05-10T12:48:40;16.20;99.90
7030;DHT22;3556;53.500;10.176;2023-05-10T12:51:07;16.20;99.90
7030;DHT22;3556;53.500;10.176;2023-05-10T12:53:35;16.10;99.90
7030;DHT22;3556;53.500;10.176;2023-05-10T12:56:01;16.00;99.90
7030;DHT22;3556;53.500;10.176;2023-05-10T12:58:26;15.90;99.90
7030;DHT22;3556;53.500;10.176;2023-05-10T13:00:52;16.00;99.90
7030;DHT22;3556;53.500;10.176;2023-05-10T13:03:18;16.10;99.90
7030;DHT22;3556;53.500;10.176;2023-05-10T13:05:43;16.30;99.90
7030;DHT22;3556;53.500;10.176;2023-05-10T13:08:09;16.40;99.90
7030;DHT22;3556;53.500;10.176;2023-05-10T13:10:35;16.60;99.90
7030;DHT22;3556;53.500;10.176;2023-05-10T13:13:00;16.70;99.90
7030;DHT22;3556;53.500;10.176;2023-05-10T13:15:26;16.90;99.90
7030;DHT22;3556;53.500;10.176;2023-05-10T13:17:53;17.00;99.90
7030;DHT22;3556;53.500;10.176;2023-05-10T13:20:19;17.10;99.90
7030;DHT22;3556;53.500;10.176;2023-05-10T13:22:44;17.20;99.90
7030;DHT22;3556;53.500;10.176;2023-05-10T13:25:11;17.30;99.90
7030;DHT22;3556;53.500;10.176;2023-05-10T13:27:37;17.30;99.90
7030;DHT22;3556;53.500;10.176;2023-05-10T13:30:03;17.40;99.90
7030;DHT22;3556;53.500;10.176;2023-05-10T13:32:29;17.50;99.90
7030;DHT22;3556;53.500;10.176;2023-05-10T13:34:55;17.60;99.90
7030;DHT22;3556;53.500;10.176;2023-05-10T13:37:21;17.70;99.90
7030;DHT22;3556;53.500;10.176;2023-05-10T13:39:47;17.80;99.90
7030;DHT22;3556;53.500;10.176;2023-05-10T13:42:13;17.80;99.90
7030;DHT22;3556;53.500;10.176;2023-05-10T13:44:39;17.90;99.90
7030;DHT22;3556;53.500;10.176;2023-05-10T13:47:05;17.90;99.90
7030;DHT22;3556;53.500;10.176;2023-05-10T13:49:31;17.90;99.90
7030;DHT22;3556;53.500;10.176;2023-05-10T13:51:57;18.00;99.90
7030;DHT22;3556;53.500;10.176;2023-05-10T13:54:23;18.00;99.90
7030;DHT22;3556;53.500;10.176;2023-05-10T13:56:49;18.00;99.90
7030;DHT22;3556;53.500;10.176;2023-05-10T13:59:15;18.10;99.90
7030;DHT22;3556;53.500;10.176;2023-05-10T14:01:41;18.20;99.90
7030;DHT22;3556;53.500;10.176;2023-05-10T14:04:08;18.30;99.90
7030;DHT22;3556;53.500;10.176;2023-05-10T14:06:36;18.30;99.90
7030;DHT22;3556;53.500;10.176;2023-05-10T14:09:02;18.30;99.90
7030;DHT22;3556;53.500;10.176;2023-05-10T14:11:28;18.30;99.90
7030;DHT22;3556;53.500;10.176;2023-05-10T14:13:53;18.30;99.90
7030;DHT22;3556;53.500;10.176;2023-05-10T14:16:19;18.30;99.90
7030;DHT22;3556;53.500;10.176;2023-05-10T14:18:45;18.30;99.90
7030;DHT22;3556;53.500;10.176;2023-05-10T14:21:11;18.40;99.90
7030;DHT22;3556;53.500;10.176;2023-05-10T14:23:37;18.40;99.90
7030;DHT22;3556;53.500;10.176;2023-05-10T14:26:03;18.50;99.90
7030;DHT22;3556;53.500;10.176;2023-05-10T14:28:29;18.50;99.90
7030;DHT22;3556;53.500;10.176;2023-05-10T14:30:54;18.50;99.90
7030;DHT22;3556;53.500;10.176;2023-05-10T14:33:20;18.50;99.90
7030;DHT22;3556;53.500;10.176;2023-05-10T14:35:46;18.50;99.90
7030;DHT22;3556;53.500;10.176;2023-05-10T14:38:12;18.60;99.90
7030;DHT22;3556;53.500;10.176;2023-05-10T14:40:38;18.60;99.90
7030;DHT22;3556;53.500;10.176;2023-05-10T14:43:04;18.60;99.90
7030;DHT22;3556;53.500;10.176;2023-05-10T14:45:30;18.60;99.90
7030;DHT22;3556;53.500;10.176;2023-05-10T14:47:57;18.60;99.90
7030;DHT22;3556;53.500;10.176;2023-05-10T14:50:23;18.50;99.90
7030;DHT22;3556;53.500;10.176;2023-05-10T14:52:48;18.40;99.90
7030;DHT22;3556;53.500;10.176;2023-05-10T14:55:15;18.30;99.90
7030;DHT22;3556;53.500;10.176;2023-05-10T14:57:40;18.30;99.90
7030;DHT22;3556;53.500;10.176;2023-05-10T15:00:07;18.40;99.90
7030;DHT22;3556;53.500;10.176;2023-05-10T15:02:32;18.60;99.90
7030;DHT22;3556;53.500;10.176;2023-05-10T15:04:58;18.70;99.90
7030;DHT22;3556;53.500;10.176;2023-05-10T15:07:24;18.80;99.90
7030;DHT22;3556;53.500;10.176;2023-05-10T15:09:52;18.90;99.90
7030;DHT22;3556;53.500;10.176;2023-05-10T15:12:18;18.90;99.90
7030;DHT22;3556;53.500;10.176;2023-05-10T15:14:44;18.90;99.90
7030;DHT22;3556;53.500;10.176;2023-05-10T15:17:09;18.90;99.90
7030;DHT22;3556;53.500;10.176;2023-05-10T15:19:35;19.00;99.90
7030;DHT22;3556;53.500;10.176;2023-05-10T15:22:01;19.00;99.90
7030;DHT22;3556;53.500;10.176;2023-05-10T15:24:27;19.10;99.90
7030;DHT22;3556;53.500;10.176;2023-05-10T15:26:53;19.20;99.90
7030;DHT22;3556;53.500;10.176;2023-05-10T15:29:19;19.30;99.90
7030;DHT22;3556;53.500;10.176;2023-05-10T15:31:48;19.30;99.90
7030;DHT22;3556;53.500;10.176;2023-05-10T15:34:15;19.40;99.90
7030;DHT22;3556;53.500;10.176;2023-05-10T15:36:41;19.50;99.90
7030;DHT22;3556;53.500;10.176;2023-05-10T15:39:06;19.30;99.90
7030;DHT22;3556;53.500;10.176;2023-05-10T15:41:32;19.10;99.90
7030;DHT22;3556;53.500;10.176;2023-05-10T15:43:58;18.90;99.90
7030;DHT22;3556;53.500;10.176;2023-05-10T15:46:27;18.80;99.90
7030;DHT22;3556;53.500;10.176;2023-05-10T15:48:53;18.70;99.90
7030;DHT22;3556;53.500;10.176;2023-05-10T15:51:19;18.60;99.90
7030;DHT22;3556;53.500;10.176;2023-05-10T15:53:45;18.50;99.90
7030;DHT22;3556;53.500;10.176;2023-05-10T15:56:11;18.40;99.90
7030;DHT22;3556;53.500;10.176;2023-05-10T15:58:40;18.30;99.90
7030;DHT22;3556;53.500;10.176;2023-05-10T16:01:06;18.20;99.90
7030;DHT22;3556;53.500;10.176;2023-05-10T16:03:35;18.20;99.90
7030;DHT22;3556;53.500;10.176;2023-05-10T16:06:00;18.10;99.90
7030;DHT22;3556;53.500;10.176;2023-05-10T16:08:27;18.00;99.90
7030;DHT22;3556;53.500;10.176;2023-05-10T16:10:55;17.90;99.90
7030;DHT22;3556;53.500;10.176;2023-05-10T16:13:21;17.80;99.90
7030;DHT22;3556;53.500;10.176;2023-05-10T16:15:47;17.60;99.90